createdAt,value
2022-11-30T00:01:39.480Z,23.17
2022-11-30T00:04:09.214Z,23.65
2022-11-30T00:06:37.386Z,21.55
2022-11-30T00:09:05.746Z,21.15
2022-11-30T00:11:34.757Z,22.35
2022-11-30T00:14:03.391Z,21.83
2022-11-30T00:16:32.137Z,22.52
2022-11-30T00:19:00.790Z,20.88
2022-11-30T00:21:29.066Z,20.25
2022-11-30T00:23:57.626Z,20.15
2022-11-30T00:26:26.365Z,20.85
2022-11-30T00:28:54.605Z,20.60
2022-11-30T00:31:22.772Z,20.48
2022-11-30T00:33:51.585Z,20.25
2022-11-30T00:36:22.900Z,22.63
2022-11-30T00:38:52.821Z,21.52
2022-11-30T00:41:21.555Z,20.40
2022-11-30T00:43:50.200Z,21.20
2022-11-30T00:46:19.025Z,18.40
2022-11-30T00:48:48.499Z,20.75
2022-11-30T00:51:16.597Z,20.23
2022-11-30T00:53:45.195Z,19.90
2022-11-30T00:56:13.635Z,18.70
2022-11-30T00:58:41.931Z,17.40
2022-11-30T01:01:11.512Z,17.92
2022-11-30T01:03:39.851Z,18.52
2022-11-30T01:06:09.860Z,18.83
2022-11-30T01:08:38.251Z,17.13
2022-11-30T01:11:13.185Z,13.65
2022-11-30T01:13:42.496Z,15.32
2022-11-30T01:16:13.460Z,18.08
2022-11-30T01:18:42.929Z,17.83
2022-11-30T01:21:17.250Z,18.40
2022-11-30T01:23:46.335Z,19.17
2022-11-30T01:26:15.951Z,19.13
2022-11-30T01:28:45.265Z,20.10
2022-11-30T01:31:15.421Z,18.80
2022-11-30T01:33:44.240Z,18.35
2022-11-30T01:36:15.430Z,18.42
2022-11-30T01:38:46.300Z,18.40
2022-11-30T01:41:18.900Z,20.05
2022-11-30T01:43:50.601Z,18.17
2022-11-30T01:46:28.403Z,17.98
2022-11-30T01:49:11.208Z,17.33
2022-11-30T01:51:51.386Z,17.52
2022-11-30T01:54:30.930Z,18.52
2022-11-30T01:57:26.487Z,16.67
2022-11-30T01:59:58.380Z,16.95
2022-11-30T02:02:36.626Z,18.35
2022-11-30T02:05:05.486Z,18.30
2022-11-30T02:07:34.121Z,18.35
2022-11-30T02:10:02.780Z,16.52
2022-11-30T02:12:40.981Z,18.25
2022-11-30T02:15:17.405Z,16.15
2022-11-30T02:17:58.911Z,17.08
2022-11-30T02:20:36.958Z,16.40
2022-11-30T02:23:21.195Z,11.98
2022-11-30T02:26:33.735Z,11.27
2022-11-30T02:29:30.062Z,11.13
2022-11-30T02:32:07.131Z,10.73
2022-11-30T02:34:38.260Z,10.52
2022-11-30T02:37:09.416Z,11.48
2022-11-30T02:39:38.030Z,11.82
2022-11-30T02:42:12.313Z,12.02
2022-11-30T02:44:43.154Z,13.27
2022-11-30T02:47:33.316Z,14.55
2022-11-30T02:50:23.551Z,11.18
2022-11-30T02:52:53.102Z,9.60
2022-11-30T02:55:22.136Z,10.80
2022-11-30T02:57:50.695Z,10.75
2022-11-30T03:00:19.667Z,10.93
2022-11-30T03:02:47.917Z,11.00
2022-11-30T03:05:16.067Z,11.50
2022-11-30T03:07:44.443Z,10.85
2022-11-30T03:10:13.079Z,12.00
2022-11-30T03:12:41.629Z,13.73
2022-11-30T03:15:10.030Z,15.18
2022-11-30T03:17:38.591Z,15.80
2022-11-30T03:20:07.547Z,16.35
2022-11-30T03:22:36.231Z,16.50
2022-11-30T03:25:05.027Z,16.65
2022-11-30T03:27:33.151Z,17.05
2022-11-30T03:30:01.772Z,15.45
2022-11-30T03:32:31.815Z,16.63
2022-11-30T03:35:00.621Z,15.73
2022-11-30T03:37:29.218Z,14.15
2022-11-30T03:39:58.548Z,13.68
2022-11-30T03:42:27.425Z,13.82
2022-11-30T03:44:56.309Z,12.07
2022-11-30T03:47:24.827Z,12.27
2022-11-30T03:49:52.986Z,12.30
2022-11-30T03:52:21.229Z,12.95
2022-11-30T03:54:49.885Z,12.90
2022-11-30T03:57:18.538Z,13.48
2022-11-30T03:59:46.818Z,14.40
2022-11-30T04:02:15.104Z,14.07
2022-11-30T04:04:43.849Z,13.98
2022-11-30T04:07:12.744Z,13.75
2022-11-30T04:09:41.425Z,15.27
2022-11-30T04:12:09.746Z,14.20
2022-11-30T04:14:38.376Z,13.70
2022-11-30T04:17:06.813Z,14.02
2022-11-30T04:19:35.058Z,13.88
2022-11-30T04:22:03.390Z,13.85
2022-11-30T04:24:31.574Z,12.00
2022-11-30T04:27:00.245Z,14.35
2022-11-30T04:29:28.849Z,15.13
2022-11-30T04:31:57.558Z,14.38
2022-11-30T04:34:29.318Z,15.10
2022-11-30T04:37:00.453Z,14.02
2022-11-30T04:39:28.953Z,14.88
2022-11-30T04:41:57.628Z,14.77
2022-11-30T04:44:26.148Z,15.35
2022-11-30T04:46:54.884Z,13.70
2022-11-30T04:49:23.260Z,15.68
2022-11-30T04:51:51.952Z,14.85
2022-11-30T16:56:51.646Z,25.10
2022-11-30T16:59:20.100Z,25.92
2022-11-30T17:01:53.619Z,26.42
2022-11-30T17:04:27.121Z,26.05
2022-11-30T17:07:01.982Z,25.27
2022-11-30T17:09:31.426Z,25.25
2022-11-30T17:11:59.739Z,24.58
2022-11-30T17:14:28.766Z,23.63
2022-11-30T17:16:57.479Z,23.45
2022-11-30T17:19:26.250Z,23.08
2022-11-30T17:21:54.616Z,22.02
2022-11-30T17:24:22.885Z,23.30
2022-11-30T17:26:51.034Z,22.60
2022-11-30T17:29:19.222Z,24.50
2022-11-30T17:31:47.500Z,23.80
2022-11-30T17:34:16.084Z,23.15
2022-11-30T17:36:44.635Z,22.58
2022-11-30T17:39:13.151Z,23.48
2022-11-30T17:41:41.464Z,23.05
2022-11-30T17:44:11.272Z,23.10
2022-11-30T17:46:42.977Z,23.88
2022-11-30T17:49:13.804Z,24.25
2022-11-30T17:51:41.852Z,22.80
2022-11-30T17:54:11.700Z,23.75
2022-11-30T17:56:40.359Z,22.75
2022-11-30T17:59:08.531Z,22.58
2022-11-30T18:01:37.124Z,21.48
2022-11-30T18:04:05.249Z,22.55
2022-11-30T18:06:33.871Z,22.17
2022-11-30T18:09:02.599Z,22.42
2022-11-30T18:11:31.100Z,23.55
